Latest Weather Observations for Viewbank

IDV60801

Issued at 2:22 pm EST Saturday 2 July 2022 (issued every 10 minutes, with the page automatically refreshed every 10 minutes)

About weather observations | Map of weather stations | Latest weather observations for VIC | Other Formats
Station Details ID: 086068 Name: VIEWBANK Lat: -37.74 Lon: 145.10 Height: 66.1 m
Data from the previous 72 hours. | See also: Recent months at Viewbank
Date/Time
EST
Temp
°C
App
Temp
°C
Dew
Point
°C
Rel
Hum
%
Delta-T
°C
Wind Press
QNH
hPa
Press
MSL
hPa
Rain since
9am
mm
Dir  Spd
km/h
Gust
km/h
Spd
kts
Gust
kts
02/02:00pm 12.1 9.1 7.6 74 2.2 SW 13 20 7 11 1028.7 1028.8 0.0
02/01:30pm 11.7 9.3 7.0 73 2.3 SW 9 17 5 9 1029.0 1029.1 0.0
02/01:00pm 11.4 8.7 7.3 76 2.0 SW 11 19 6 10 1029.3 1029.4 0.0
02/12:30pm 11.6 8.8 7.1 74 2.2 SW 11 24 6 13 1029.6 1029.7 0.0
02/12:00pm 11.5 9.0 9.6 88 1.0 WSW 13 19 7 10 1030.1 1030.2 0.0
02/11:30am 10.5 8.1 10.2 98 0.2 WSW 13 20 7 11 1030.5 1030.6 0.0
02/11:00am 10.3 8.7 10.1 99 0.1 WSW 9 17 5 9 1030.8 1030.9 0.0
02/10:30am 8.3 6.6 8.3 100 0.0 WSW 7 9 4 5 1030.9 1031.0 0.0
02/10:00am 7.3 5.5 7.3 100 0.0 SSW 6 6 3 3 1030.8 1030.9 0.0
02/09:30am 6.8 6.1 6.8 100 0.0 CALM 0 0 0 0 1030.6 1030.7 0.0
02/09:00am 6.7 5.9 6.7 100 0.0 CALM 0 0 0 0 1030.5 1030.6 0.0
02/08:30am 4.3 3.0 4.3 100 0.0 CALM 0 0 0 0 1030.5 1030.6 0.0
02/08:00am 4.3 2.3 4.3 100 0.0 WSW 4 7 2 4 1030.5 1030.6 0.0
02/07:30am 4.5 3.3 4.5 100 0.0 CALM 0 0 0 0 1030.4 1030.5 0.0
02/07:00am 5.0 3.9 5.0 100 0.0 CALM 0 4 0 2 1030.2 1030.3 0.0
02/06:30am 5.9 5.0 5.9 100 0.0 CALM 0 0 0 0 1030.0 1030.1 0.0
02/06:00am 5.0 3.9 5.0 100 0.0 CALM 0 6 0 3 1029.9 1030.0 0.0
02/05:30am 6.1 4.8 6.1 100 0.0 W 2 6 1 3 1029.8 1029.9 0.0
02/05:00am 6.7 4.6 6.7 100 0.0 W 7 9 4 5 1029.8 1029.9 0.0
02/04:30am 6.7 4.8 6.7 100 0.0 W 6 7 3 4 1029.9 1030.0 0.0
02/04:00am 6.8 4.7 6.8 100 0.0 W 7 9 4 5 1029.9 1030.0 0.0
02/03:30am 7.1 5.1 7.1 100 0.0 W 7 11 4 6 1029.9 1030.0 0.0
02/03:00am 7.3 5.3 7.3 100 0.0 W 7 11 4 6 1029.9 1030.0 0.0
02/02:30am 8.0 6.2 7.9 99 0.0 W 7 9 4 5 1030.2 1030.3 0.0
02/02:00am 8.3 6.6 8.2 99 0.0 W 7 11 4 6 1030.1 1030.2 0.0
02/01:30am 8.5 7.0 8.4 99 0.0 WSW 6 7 3 4 1030.2 1030.3 0.0
02/01:00am 8.6 7.1 8.5 99 0.0 WSW 6 9 3 5 1030.4 1030.5 0.0
02/12:30am 8.6 7.5 8.5 99 0.0 WSW 4 7 2 4 1030.7 1030.8 0.0
02/12:00am 9.0 8.0 8.9 99 0.0 WSW 4 9 2 5 1030.7 1030.8 0.0
 
Date/Time
EST
Temp
°C
App
Temp
°C
Dew
Point
°C
Rel
Hum
%
Delta-T
°C
Wind Press
QNH
hPa
Press
MSL
hPa
Rain since
9am
mm
Dir  Spd
km/h
Gust
km/h
Spd
kts
Gust
kts
01/11:30pm 8.9 7.9 8.8 99 0.0 SW 4 7 2 4 1030.7 1030.8 0.0
01/11:00pm 8.6 7.9 8.5 99 0.0 SW 2 7 1 4 1030.8 1030.9 0.0
01/10:30pm 8.6 7.5 8.5 99 0.0 W 4 7 2 4 1030.7 1030.8 0.0
01/10:00pm 8.3 6.7 8.2 99 0.0 W 6 9 3 5 1030.8 1030.9 0.0
01/09:30pm 8.6 7.9 8.5 99 0.0 W 2 6 1 3 1031.0 1031.1 0.0
01/09:00pm 8.4 6.7 8.3 99 0.0 W 7 9 4 5 1030.9 1031.0 0.0
01/08:30pm 8.5 6.8 8.4 99 0.0 WSW 7 9 4 5 1030.9 1031.0 0.0
01/08:00pm 8.5 7.8 8.5 100 0.0 WSW 2 6 1 3 1030.9 1031.0 0.0
01/07:30pm 8.5 6.8 8.5 100 0.0 WSW 7 13 4 7 1030.8 1030.9 0.0
01/07:00pm 8.7 7.3 8.7 100 0.0 WSW 6 7 3 4 1030.6 1030.7 0.0
01/06:30pm 9.2 7.7 9.1 99 0.0 W 7 15 4 8 1030.3 1030.4 0.0
01/06:00pm 9.3 7.8 9.2 99 0.0 W 7 13 4 7 1030.1 1030.2 0.0
01/05:30pm 9.4 7.9 9.3 99 0.0 W 7 11 4 6 1029.8 1029.9 0.0
01/05:00pm 10.1 8.4 10.0 99 0.1 W 9 17 5 9 1029.5 1029.6 0.0
01/04:30pm 10.8 8.1 10.5 98 0.2 WSW 15 26 8 14 1029.5 1029.6 0.0
01/04:00pm 10.9 7.9 10.6 98 0.2 WSW 17 26 9 14 1029.4 1029.5 0.0
01/03:30pm 11.9 9.6 10.6 92 0.7 WSW 13 22 7 12 1029.0 1029.1 0.0
01/03:00pm 12.0 10.1 10.4 90 0.8 WSW 11 19 6 10 1029.1 1029.2 0.0
01/02:30pm 12.4 11.3 10.8 90 0.8 WSW 7 13 4 7 1029.3 1029.4 0.0
01/02:00pm 12.4 10.6 10.8 90 0.8 WSW 11 19 6 10 1029.4 1029.5 0.0
01/01:30pm 11.6 10.0 10.3 92 0.7 W 9 11 5 6 1029.7 1029.8 0.0
01/01:00pm 11.1 9.8 10.0 93 0.6 WSW 7 11 4 6 1030.0 1030.1 0.0
01/12:30pm 10.9 10.0 10.6 98 0.2 SE 6 7 3 4 1030.2 1030.3 0.0
01/12:00pm 10.4 9.7 10.2 99 0.1 SE 4 7 2 4 1030.4 1030.5 0.0
01/11:30am 9.7 9.6 9.6 99 0.1 CALM 0 0 0 0 1030.6 1030.7 0.0
01/11:00am 9.0 8.4 8.9 99 0.0 SE 2 7 1 4 1031.0 1031.1 0.0
01/10:30am 7.5 6.5 7.5 100 0.0 SSE 2 7 1 4 1030.9 1031.0 0.0
01/10:00am 6.2 4.0 6.2 100 0.0 SSE 7 13 4 7 1030.9 1031.0 0.0
01/09:30am 5.5 3.2 5.5 100 0.0 SSE 7 9 4 5 1030.8 1030.9 0.0
01/09:00am 4.7 2.2 4.7 100 0.0 SSE 7 11 4 6 1030.7 1030.8 0.0
01/08:30am 4.6 3.0 4.6 100 0.0 SSE 2 6 1 3 1030.3 1030.4 0.0
01/08:00am 4.3 2.7 4.3 100 0.0 SSE 2 6 1 3 1030.2 1030.3 0.0
01/07:30am 4.0 1.0 4.0 100 0.0 SSE 9 11 5 6 1030.1 1030.2 0.0
01/07:00am 3.9 1.2 3.9 100 0.0 SSW 7 11 4 6 1029.8 1029.9 0.0
01/06:30am 3.7 1.9 3.7 100 0.0 SW 2 7 1 4 1029.7 1029.8 0.0
01/06:00am 3.4 0.8 3.4 100 0.0 SW 6 7 3 4 1029.4 1029.5 0.0
01/05:30am 3.3 0.5 3.3 100 0.0 SW 7 11 4 6 1029.1 1029.2 0.0
01/05:00am 3.7 1.0 3.7 100 0.0 SW 7 7 4 4 1028.9 1029.0 0.0
01/04:30am 3.7 1.0 3.7 100 0.0 SW 7 11 4 6 1028.8 1028.9 0.0
01/04:00am 3.4 0.8 3.4 100 0.0 SW 6 7 3 4 1028.6 1028.7 0.0
01/03:30am 3.3 1.9 3.3 100 0.0 CALM 0 0 0 0 1028.5 1028.6 0.0
01/03:00am 3.0 1.5 3.0 100 0.0 CALM 0 0 0 0 1028.7 1028.8 0.0
01/02:30am 3.0 1.1 3.0 100 0.0 SW 2 7 1 4 1028.7 1028.8 0.0
01/02:00am 3.6 1.8 3.6 100 0.0 WNW 2 6 1 3 1028.7 1028.8 0.0
01/01:30am 3.8 2.4 3.8 100 0.0 CALM 0 2 0 1 1028.5 1028.6 0.0
01/01:00am 3.6 2.2 3.6 100 0.0 CALM 0 7 0 4 1028.6 1028.7 0.0
01/12:30am 3.6 2.2 3.6 100 0.0 CALM 0 2 0 1 1028.6 1028.7 0.0
01/12:00am 3.3 1.9 3.3 100 0.0 CALM 0 0 0 0 1028.5 1028.6 0.0
 
Date/Time
EST
Temp
°C
App
Temp
°C
Dew
Point
°C
Rel
Hum
%
Delta-T
°C
Wind Press
QNH
hPa
Press
MSL
hPa
Rain since
9am
mm
Dir  Spd
km/h
Gust
km/h
Spd
kts
Gust
kts
30/11:30pm 3.5 1.3 3.5 100 0.0 W 4 6 2 3 1028.4 1028.5 0.0
30/11:00pm 4.5 2.1 4.5 100 0.0 WSW 6 9 3 5 1028.2 1028.3 0.0
30/10:30pm 4.2 2.9 4.2 100 0.0 CALM 0 0 0 0 1028.2 1028.3 0.0
30/10:00pm 4.7 3.5 4.7 100 0.0 CALM 0 4 0 2 1027.9 1028.1 0.0
30/09:30pm 4.5 2.9 4.5 100 0.0 WSW 2 6 1 3 1027.8 1028.0 0.0
30/09:00pm 5.4 4.4 5.4 100 0.0 CALM 0 4 0 2 1027.6 1027.7 0.0
30/08:30pm 6.3 5.4 6.2 99 0.0 CALM 0 0 0 0 1027.5 1027.6 0.0
30/08:00pm 6.6 5.8 6.5 99 0.0 CALM 0 0 0 0 1027.3 1027.4 0.0
30/07:30pm 7.3 6.3 5.8 90 0.7 CALM 0 0 0 0 1027.0 1027.1 0.0
30/07:00pm 7.8 6.8 5.6 86 1.0 CALM 0 0 0 0 1026.6 1026.7 0.0
30/06:30pm 8.4 7.2 4.8 78 1.6 CALM 0 0 0 0 1026.3 1026.4 0.0
30/06:00pm 8.9 6.7 5.1 77 1.7 SSW 6 9 3 5 1026.0 1026.1 0.0
30/05:30pm 9.1 6.8 5.5 78 1.6 SW 7 9 4 5 1025.6 1025.7 0.0
30/05:00pm 10.1 8.2 5.1 71 2.3 SW 4 7 2 4 1025.3 1025.4 0.0
30/04:30pm 11.0 8.7 5.5 69 2.5 SW 7 11 4 6 1025.2 1025.3 0.0
30/04:00pm 11.7 9.5 6.4 70 2.5 WSW 7 9 4 5 1024.7 1024.8 0.0
30/03:30pm 12.1 9.1 6.2 67 2.8 SW 11 15 6 8 1024.6 1024.7 0.0
30/03:00pm 13.4 11.3 6.0 61 3.5 SSW 6 9 3 5 1024.4 1024.5 0.0
30/02:30pm 14.2 13.5 7.0 62 3.5 CALM 0 6 0 3 1024.1 1024.2 0.0
30/02:00pm 15.0 14.1 6.0 55 4.3 CALM 0 0 0 0 1024.3 1024.4 0.0
30/01:30pm 14.0 12.6 7.3 64 3.3 SE 4 7 2 4 1024.5 1024.6 0.0
30/01:00pm 12.9 11.1 7.1 68 2.8 SSW 6 13 3 7 1024.8 1024.9 0.0
30/12:30pm 12.3 11.4 7.6 73 2.3 SSW 2 6 1 3 1025.0 1025.1 0.0
30/12:00pm 11.3 10.4 7.6 78 1.8 SSE 2 7 1 4 1025.3 1025.4 0.0
30/11:30am 10.2 8.5 7.6 84 1.2 SSE 6 9 3 5 1025.6 1025.7 0.0
30/11:00am 9.2 8.0 8.1 93 0.5 SSE 4 7 2 4 1025.5 1025.6 0.0
30/10:30am 8.0 6.8 7.9 99 0.0 N 4 7 2 4 1025.6 1025.7 0.0
30/10:00am 6.5 4.9 6.4 99 0.0 E 4 7 2 4 1025.6 1025.7 0.0
30/09:30am 5.5 3.3 5.5 100 0.0 E 6 9 3 5 1025.6 1025.7 0.0
30/09:00am 4.2 2.5 4.2 100 0.0 ENE 2 6 1 3 1025.2 1025.3 0.0
30/08:30am 2.6 1.0 2.6 100 0.0 CALM 0 2 0 1 1024.9 1025.0 0.0
30/08:00am 2.5 0.9 2.5 100 0.0 CALM 0 0 0 0 1024.5 1024.6 0.0
30/07:30am 2.8 0.9 2.8 100 0.0 NE 2 6 1 3 1024.2 1024.3 0.0
30/07:00am 2.8 1.3 2.8 100 0.0 CALM 0 0 0 0 1024.1 1024.2 0.0
30/06:30am 3.6 2.2 3.6 100 0.0 CALM 0 0 0 0 1023.5 1023.6 0.0
30/06:00am 3.6 2.2 3.6 100 0.0 CALM 0 0 0 0 1023.0 1023.1 0.0
30/05:30am 3.4 2.0 3.3 99 0.0 CALM 0 0 0 0 1022.4 1022.5 0.0
30/05:00am 4.8 3.6 4.8 100 0.0 CALM 0 4 0 2 1022.2 1022.3 0.0
30/04:30am 5.0 3.9 4.9 99 0.0 CALM 0 0 0 0 1022.0 1022.1 0.0
30/04:00am 5.1 3.2 5.0 99 0.0 E 4 7 2 4 1022.0 1022.1 0.0
30/03:30am 6.0 4.6 5.6 97 0.2 NE 2 6 1 3 1021.8 1021.9 0.0
30/03:00am 6.2 5.2 5.6 96 0.3 CALM 0 6 0 3 1021.9 1022.0 0.0
30/02:30am 6.5 4.6 5.1 91 0.6 NNW 4 9 2 5 1022.1 1022.2 0.0
30/02:00am 6.7 5.5 4.7 87 0.9 CALM 0 0 0 0 1022.1 1022.2 0.0
30/01:30am 6.2 4.7 5.0 92 0.5 NNW 2 6 1 3 1021.8 1021.9 0.0
30/01:00am 7.1 4.8 4.6 84 1.1 NNW 6 9 3 5 1021.7 1021.8 0.0
30/12:30am 6.9 4.7 5.1 88 0.8 N 6 7 3 4 1021.9 1022.0 0.0
30/12:00am 7.0 5.8 4.7 85 1.0 CALM 0 0 0 0 1021.6 1021.7 0.0
 
Date/Time
EST
Temp
°C
App
Temp
°C
Dew
Point
°C
Rel
Hum
%
Delta-T
°C
Wind Press
QNH
hPa
Press
MSL
hPa
Rain since
9am
mm
Dir  Spd
km/h
Gust
km/h
Spd
kts
Gust
kts
29/11:30pm 7.1 5.9 4.4 83 1.2 CALM 0 6 0 3 1021.7 1021.8 0.0
29/11:00pm 7.3 5.8 5.1 86 1.0 ENE 2 7 1 4 1021.7 1021.8 0.0
29/10:30pm 7.1 5.7 5.6 90 0.7 ENE 2 7 1 4 1021.8 1021.9 0.0
29/10:00pm 7.5 5.1 5.1 85 1.1 NE 7 11 4 6 1021.9 1022.0 0.0
29/09:30pm 7.3 5.5 5.3 87 0.9 NE 4 7 2 4 1021.9 1022.0 0.0
29/09:00pm 8.3 5.4 4.5 77 1.7 N 9 13 5 7 1022.0 1022.1 0.0
29/08:30pm 8.7 5.7 4.1 73 2.0 NNW 9 13 5 7 1022.2 1022.3 0.0
29/08:00pm 8.2 5.7 4.0 75 1.8 N 6 7 3 4 1021.8 1021.9 0.0
29/07:30pm 8.5 7.1 3.8 72 2.0 CALM 0 0 0 0 1021.6 1021.7 0.0
29/07:00pm 8.8 7.3 3.2 68 2.4 CALM 0 0 0 0 1021.3 1021.4 0.0
29/06:30pm 9.1 7.3 3.7 69 2.4 E 2 7 1 4 1020.9 1021.0 0.0
29/06:00pm 9.2 6.5 3.8 69 2.4 E 7 13 4 7 1020.9 1021.0 0.0
29/05:30pm 9.4 6.9 3.8 68 2.5 E 6 11 3 6 1020.7 1020.8 0.0
29/05:00pm 9.6 7.1 4.0 68 2.5 ENE 6 9 3 5 1021.1 1021.2 0.0
29/04:30pm 10.1 7.4 3.8 65 2.8 ENE 7 11 4 6 1021.0 1021.1 0.0
29/04:00pm 10.7 8.1 3.0 59 3.3 NNE 6 9 3 5 1021.5 1021.6 0.0
29/03:30pm 11.0 7.0 2.6 56 3.6 NNE 13 26 7 14 1021.6 1021.7 0.0
29/03:00pm 11.1 6.3 2.7 56 3.6 N 17 32 9 17 1021.7 1021.8 0.0
29/02:30pm 11.2 6.3 2.2 54 3.9 NNE 17 28 9 15 1021.7 1021.8 0.0

Other formats

Comma delimited format used in spreadsheet applications
http://www.bom.gov.au/fwo/IDV60801/IDV60801.95874.axf

JavaScript Object Notation format (JSON) in row-major order
http://www.bom.gov.au/fwo/IDV60801/IDV60801.95874.json

Data quality

Most of these data are generated automatically and are frequently updated. Quality checks on data are not normally performed. It is possible for incorrect values to appear. Refer to information at About Latest Weather Observations and please check the disclaimer before using these data.